Olalla, Washington
Current Conditions -  °F | °C
As of 10:15 PM on Wednesday 22 Oct 2014 (Local Time) from KPWT Reporting Station
Broken Clouds Broken Clouds  
Wind Chill: 54°   Ceiling: 3000
Heat Index: 54°   Visibility: 10mi
Dew Point: 54°   Wind: 14mph
Humidity: 100%   Direction: 180°S
Pressure: 29.65"   Gusts: NA
Location:  47.43°N, 122.55°W
Report Text: KPWT 230515Z AUTO 18012KT 10SM FEW014 SCT022 BKN030 12/12 A2965 RMK AO1
Loading
Personal Weather Stations






























Interactive Weather Map
Tropical Storm Tracking
New forecast layout! Learn more

10-Day Weather Forecast

Advertisements
Track Severe Weather on mobile